Time;durP1;ratioP1;P1;durP2;ratioP2;P2;SDS_P1;SDS_P2;PMS_P1;PMS_P2;Temp;Humidity;BMP_temperature;BMP_pressure;BME280_temperature;BME280_humidity;BME280_pressure;Samples;Min_cycle;Max_cycle;Signal;HPM_P1;HPM_P2
2023/05/07 00:02:25;;;;;;;39.78;35.63;;;;;;;12.99;100.00;98815.91;5071225;28;20039;-58
2023/05/07 00:04:51;;;;;;;42.72;36.50;;;;;;;12.98;100.00;98814.31;5069831;28;20032;-58
2023/05/07 00:07:17;;;;;;;40.75;36.60;;;;;;;13.02;100.00;98470.56;5071245;28;20077;-58
2023/05/07 00:09:42;;;;;;;38.80;33.90;;;;;;;13.00;100.00;98468.16;5069581;28;20036;-58
2023/05/07 00:12:08;;;;;;;42.63;35.42;;;;;;;13.00;100.00;98118.81;5071015;28;20017;-57
2023/05/07 00:14:33;;;;;;;38.63;34.53;;;;;;;13.01;100.00;97421.84;5069720;28;20040;-58
2023/05/07 00:16:58;;;;;;;42.17;35.33;;;;;;;12.97;100.00;97066.31;5071277;28;20020;-57
2023/05/07 00:19:24;;;;;;;40.22;35.95;;;;;;;13.01;100.00;96373.41;5070120;28;20027;-58
2023/05/07 00:21:49;;;;;;;42.70;37.00;;;;;;;13.00;100.00;95674.34;5069506;28;20128;-58
2023/05/07 00:24:15;;;;;;;38.30;33.03;;;;;;;12.98;100.00;95322.19;5071047;28;20085;-59
2023/05/07 00:26:40;;;;;;;40.50;33.75;;;;;;;12.98;100.00;94973.16;5069003;28;20048;-59
2023/05/07 00:29:05;;;;;;;41.60;37.30;;;;;;;12.98;100.00;94275.13;5070908;28;20028;-58
2023/05/07 00:31:31;;;;;;;42.80;38.20;;;;;;;12.98;100.00;93926.19;5068105;28;20043;-58
2023/05/07 00:33:56;;;;;;;41.00;35.80;;;;;;;12.98;100.00;93228.34;5070398;28;20059;-58
2023/05/07 00:36:21;;;;;;;38.45;34.42;;;;;;;12.92;100.00;92869.72;5069318;28;20502;-58
2023/05/07 00:38:47;;;;;;;39.58;35.28;;;;;;;12.98;100.00;92530.66;5070844;28;20028;-58
2023/05/07 00:41:12;;;;;;;43.13;38.50;;;;;;;12.97;100.00;92529.16;5069116;28;20094;-58
2023/05/07 00:43:37;;;;;;;41.00;36.35;;;;;;;12.97;100.00;92180.34;5070693;28;20028;-58
2023/05/07 00:46:03;;;;;;;42.22;37.83;;;;;;;12.96;100.00;91830.09;5069452;28;20702;-58
2023/05/07 00:48:28;;;;;;;40.13;35.95;;;;;;;12.96;100.00;91830.09;5069815;28;20020;-57
2023/05/07 00:50:54;;;;;;;46.63;37.70;;;;;;;12.97;100.00;91482.09;5069580;28;20040;-58
2023/05/07 00:53:20;;;;;;;42.42;37.88;;;;;;;12.96;100.00;91132.66;5070701;28;20098;-58
2023/05/07 00:55:46;;;;;;;40.58;36.25;;;;;;;12.95;100.00;90782.50;5068986;28;20075;-58
2023/05/07 00:58:11;;;;;;;41.33;36.85;;;;;;;12.94;100.00;90432.41;5070498;28;20056;-57
2023/05/07 01:00:36;;;;;;;43.83;38.40;;;;;;;12.94;100.00;90432.41;5068980;28;20040;-58
2023/05/07 01:03:02;;;;;;;42.58;36.90;;;;;;;12.94;100.00;90083.09;5070561;28;20016;-57
2023/05/07 01:05:28;;;;;;;39.50;35.47;;;;;;;12.92;100.00;89732.31;5069134;28;20028;-57
2023/05/07 01:07:55;;;;;;;41.65;37.10;;;;;;;12.92;100.00;89732.31;5070348;28;20032;-57
2023/05/07 01:10:22;;;;;;;41.03;36.65;;;;;;;12.91;100.00;89382.38;5068532;28;20502;-57
2023/05/07 01:12:48;;;;;;;39.35;35.28;;;;;;;12.89;100.00;89378.75;5070838;28;20025;-57
2023/05/07 01:15:13;;;;;;;40.00;35.85;;;;;;;12.88;100.00;89377.31;5069056;28;20035;-57
2023/05/07 01:17:41;;;;;;;40.13;35.97;;;;;;;12.87;100.00;89376.59;5069723;28;20033;-57
2023/05/07 01:20:07;;;;;;;39.90;36.00;;;;;;;12.87;100.00;89028.13;5069051;28;20036;-57
2023/05/07 01:22:36;;;;;;;42.63;37.08;;;;;;;12.88;100.00;88681.09;5070226;28;20021;-57
2023/05/07 01:25:03;;;;;;;38.97;34.83;;;;;;;12.87;100.00;88331.25;5069004;28;20170;-59
2023/05/07 01:27:28;;;;;;;40.97;36.75;;;;;;;12.87;100.00;88331.25;5069851;28;20025;-59
2023/05/07 01:29:54;;;;;;;38.90;34.80;;;;;;;12.87;100.00;87982.19;5069025;28;20067;-58
2023/05/07 01:32:27;;;;;;;38.90;34.75;;;;;;;12.86;100.00;87633.13;5069916;28;20032;-58
2023/05/07 01:34:53;;;;;;;41.95;37.55;;;;;;;12.86;100.00;87284.78;5069032;28;20036;-59
2023/05/07 01:37:19;;;;;;;39.17;35.03;;;;;;;12.86;100.00;86936.50;5070728;28;20074;-58
2023/05/07 01:39:46;;;;;;;39.45;35.22;;;;;;;12.86;100.00;86588.25;5068079;28;20052;-59
2023/05/07 01:42:11;;;;;;;42.05;37.60;;;;;;;12.81;100.00;86233.09;5070259;28;20024;-58
2023/05/07 01:44:37;;;;;;;43.63;38.80;;;;;;;12.90;100.00;85896.69;5068462;28;20044;-59
2023/05/07 01:47:03;;;;;;;40.25;36.15;;;;;;;12.89;100.00;85547.13;5069878;28;20024;-58
2023/05/07 01:49:28;;;;;;;42.58;38.05;;;;;;;12.93;100.00;85553.34;5068376;28;20514;-58
2023/05/07 01:51:53;;;;;;;39.88;35.55;;;;;;;12.95;100.00;85556.09;5070363;28;20027;-58
2023/05/07 01:54:20;;;;;;;40.55;36.30;;;;;;;12.93;100.00;85901.53;5068348;28;20040;-58
2023/05/07 01:56:47;;;;;;;40.58;36.38;;;;;;;12.91;100.00;86595.25;5070028;28;20020;-58
2023/05/07 01:59:13;;;;;;;40.83;36.67;;;;;;;12.85;100.00;87283.38;5068765;28;20044;-58
2023/05/07 02:01:38;;;;;;;43.13;36.67;;;;;;;12.88;100.00;87286.94;5069170;28;20356;-57
2023/05/07 02:04:04;;;;;;;46.25;40.00;;;;;;;12.83;100.00;87628.88;5068876;28;20036;-57
2023/05/07 02:06:30;;;;;;;41.60;37.28;;;;;;;12.81;100.00;87626.03;5069957;28;20017;-57
2023/05/07 02:08:56;;;;;;;50.92;41.95;;;;;;;12.83;100.00;87628.88;5071126;28;20107;-57
2023/05/07 02:11:21;;;;;;;46.15;39.13;;;;;;;12.77;100.00;87620.41;5073325;28;20024;-56
2023/05/07 02:13:46;;;;;;;44.28;39.40;;;;;;;12.80;100.00;87624.63;5072154;28;20032;-57
2023/05/07 02:16:14;;;;;;;42.88;38.42;;;;;;;12.80;100.00;87277.06;5073813;28;20027;-58
2023/05/07 02:18:39;;;;;;;43.70;37.70;;;;;;;12.78;100.00;86925.28;5071506;28;20379;-57
2023/05/07 02:21:04;;;;;;;43.75;39.20;;;;;;;12.80;100.00;86928.09;5073622;28;20383;-57
2023/05/07 02:23:30;;;;;;;44.00;38.80;;;;;;;12.81;100.00;86581.28;5073209;28;20031;-57
2023/05/07 02:25:55;;;;;;;43.92;39.15;;;;;;;12.77;100.00;86576.38;5071688;28;20036;-57
2023/05/07 02:28:20;;;;;;;40.50;36.38;;;;;;;12.80;100.00;86928.09;5072972;28;20036;-57
2023/05/07 02:30:46;;;;;;;41.47;36.60;;;;;;;12.76;100.00;87270.72;5071782;28;20032;-57
2023/05/07 02:33:13;;;;;;;45.65;35.58;;;;;;;12.76;100.00;87618.97;5073013;28;20020;-57
2023/05/07 02:35:39;;;;;;;46.50;37.08;;;;;;;12.72;100.00;88309.88;5071600;28;20056;-58
2023/05/07 02:38:04;;;;;;;41.25;35.78;;;;;;;12.68;100.00;89002.25;5073231;28;20376;-57
2023/05/07 02:40:29;;;;;;;38.47;34.33;;;;;;;12.63;100.00;90040.13;5071154;28;20059;-58
2023/05/07 02:42:55;;;;;;;40.50;34.72;;;;;;;12.58;100.00;90381.25;5072537;28;20036;-57
2023/05/07 02:45:20;;;;;;;38.00;33.75;;;;;;;12.58;100.00;90728.97;5071452;28;20210;-58
2023/05/07 02:47:46;;;;;;;37.40;31.88;;;;;;;12.57;100.00;91076.69;5072675;28;20035;-58
2023/05/07 02:50:11;;;;;;;39.95;33.17;;;;;;;12.59;100.00;90730.41;5071219;28;20509;-57
2023/05/07 02:52:37;;;;;;;37.05;32.05;;;;;;;12.55;100.00;91073.72;5072720;28;20459;-57
2023/05/07 02:55:02;;;;;;;43.15;33.67;;;;;;;12.49;100.00;91414.09;5071121;28;20040;-57
2023/05/07 02:57:28;;;;;;;37.03;32.60;;;;;;;12.47;100.00;91758.84;5072310;28;20382;-58
2023/05/07 02:59:53;;;;;;;38.75;31.92;;;;;;;12.42;100.00;92099.84;5070978;28;20060;-57
2023/05/07 03:02:18;;;;;;;37.28;29.65;;;;;;;12.39;100.00;92444.59;5072390;28;20017;-57
2023/05/07 03:04:44;;;;;;;38.53;31.33;;;;;;;12.34;100.00;93134.84;5071258;28;20564;-58
2023/05/07 03:07:09;;;;;;;35.58;30.75;;;;;;;12.31;100.00;93827.41;5072464;28;20453;-57
2023/05/07 03:09:34;;;;;;;36.08;28.85;;;;;;;12.28;100.00;94171.41;5070368;28;20048;-57
2023/05/07 03:12:01;;;;;;;34.92;29.90;;;;;;;12.24;100.00;94513.88;5072759;28;20021;-58
2023/05/07 03:14:26;;;;;;;33.08;28.83;;;;;;;12.25;100.00;95212.63;5070850;28;20056;-58
2023/05/07 03:16:52;;;;;;;34.67;29.00;;;;;;;12.22;100.00;95208.75;5071974;28;20395;-58
2023/05/07 03:19:17;;;;;;;42.40;30.63;;;;;;;12.22;100.00;95556.66;5071119;28;20117;-58
2023/05/07 03:21:42;;;;;;;37.05;31.00;;;;;;;12.19;100.00;95900.66;5071903;28;20035;-57
2023/05/07 03:24:08;;;;;;;35.78;28.10;;;;;;;12.17;100.00;96246.25;5070684;28;20063;-58
2023/05/07 03:26:33;;;;;;;43.97;29.83;;;;;;;12.14;100.00;96590.22;5072143;28;20375;-58
2023/05/07 03:28:58;;;;;;;33.58;28.23;;;;;;;12.11;100.00;96934.22;5070681;28;20036;-57
2023/05/07 03:31:24;;;;;;;39.75;28.52;;;;;;;12.12;100.00;96935.81;5071605;28;20032;-57
2023/05/07 03:33:54;;;;;;;42.78;30.25;;;;;;;12.10;100.00;97281.41;5070927;28;20024;-58
2023/05/07 03:36:19;;;;;;;42.88;31.15;;;;;;;12.12;100.00;97284.53;5071997;28;20115;-58
2023/05/07 03:38:45;;;;;;;37.03;29.40;;;;;;;12.10;100.00;97281.41;5069938;28;20104;-58
2023/05/07 03:41:12;;;;;;;44.63;30.95;;;;;;;12.06;100.00;97276.66;5071769;28;20051;-58
2023/05/07 03:43:37;;;;;;;40.92;31.05;;;;;;;12.04;100.00;97622.22;5070358;28;20039;-58
2023/05/07 03:46:02;;;;;;;41.63;33.05;;;;;;;12.07;100.00;97626.19;5071696;28;20016;-59
2023/05/07 03:48:28;;;;;;;40.25;32.25;;;;;;;12.05;100.00;97972.56;5071296;28;20078;-58
2023/05/07 03:50:53;;;;;;;39.42;30.35;;;;;;;12.04;100.00;98319.75;5070324;28;20677;-58
2023/05/07 03:53:18;;;;;;;36.97;30.50;;;;;;;12.01;100.00;99012.63;5071472;28;20387;-58
2023/05/07 03:55:44;;;;;;;42.35;32.97;;;;;;;11.99;100.00;99706.31;5070032;28;20039;-58
2023/05/07 03:58:09;;;;;;;39.22;29.95;;;;;;;11.97;100.00;100401.69;5071783;28;20033;-59
2023/05/07 04:00:38;;;;;;;39.22;32.85;;;;;;;11.95;100.00;101445.31;5069482;28;20415;-59
2023/05/07 04:03:04;;;;;;;47.90;31.88;;;;;;;11.83;100.00;102472.53;5071441;28;20032;-58
2023/05/07 04:05:30;;;;;;;43.70;34.47;;;;;;;11.87;100.00;103177.38;5069847;28;20043;-58
2023/05/07 04:07:55;;;;;;;44.55;35.17;;;;;;;11.84;100.00;103522.28;5070921;28;20453;-58
2023/05/07 04:10:20;;;;;;;41.67;33.25;;;;;;;11.89;100.00;103529.88;5069735;28;20039;-58
2023/05/07 04:12:46;;;;;;;45.58;36.25;;;;;;;11.85;100.00;104221.50;5071437;28;20016;-58
2023/05/07 04:15:11;;;;;;;42.97;33.25;;;;;;;11.81;100.00;104913.97;5069647;28;20040;-57
2023/05/07 04:17:36;;;;;;;39.42;33.47;;;;;;;11.80;100.00;105959.25;5070760;28;20040;-58
2023/05/07 04:20:02;;;;;;;41.10;33.72;;;;;;;11.78;100.00;106654.47;5069843;28;20037;-58
2023/05/07 04:22:27;;;;;;;42.97;33.83;;;;;;;11.75;100.00;107699.19;5070355;28;20107;-58
2023/05/07 04:24:53;;;;;;;48.60;32.60;;;;;;;11.66;100.00;108731.72;5069855;28;20040;-58
2023/05/07 04:27:18;;;;;;;49.20;34.78;;;;;;;11.70;100.00;109787.47;5070814;28;20387;-59
2023/05/07 04:29:46;;;;;;;43.45;34.53;;;;;;;11.64;100.00;111524.94;5068170;28;20051;-57
2023/05/07 04:32:12;;;;;;;49.03;38.72;;;;;;;11.65;100.00;112226.25;5061780;28;20027;-57
2023/05/07 04:34:37;;;;;;;45.78;35.70;;;;;;;11.63;100.00;113272.03;5069491;28;20123;-57
2023/05/07 04:37:03;;;;;;;42.63;35.67;;;;;;;11.66;100.00;113277.56;5068645;28;20021;-57
2023/05/07 04:39:28;;;;;;;42.55;35.47;;;;;;;11.65;100.00;113975.53;5067114;28;20089;-57
2023/05/07 04:41:54;;;;;;;53.53;36.85;;;;;;;11.67;100.00;113629.28;5070958;28;20032;-57
2023/05/07 04:44:19;;;;;;;52.75;37.13;;;;;;;11.74;100.00;112942.44;5068112;28;20524;-57
2023/05/07 04:46:45;;;;;;;45.65;34.92;;;;;;;11.77;100.00;112246.38;5069005;28;20028;-57
2023/05/07 04:49:11;;;;;;;42.85;33.20;;;;;;;11.82;100.00;111905.66;5068343;28;20044;-57
2023/05/07 04:51:36;;;;;;;43.17;35.03;;;;;;;11.80;100.00;112602.66;5067489;28;20032;-58
2023/05/07 04:54:02;;;;;;;42.05;33.78;;;;;;;11.73;100.00;113990.38;5067369;28;20040;-57
2023/05/07 04:56:29;;;;;;;38.70;33.78;;;;;;;11.81;100.00;116804.47;5070224;28;20020;-57
2023/05/07 04:58:54;;;;;;;43.08;34.42;;;;;;;11.85;100.00;118564.84;5069058;28;20024;-57
2023/05/07 05:01:19;;;;;;;50.17;36.78;;;;;;;11.87;100.00;121022.59;5067824;28;20055;-57
2023/05/07 05:03:44;;;;;;;35.42;30.08;;;;;;;11.95;100.00;122440.44;5065472;28;20040;-57
2023/05/07 05:06:10;;;;;;;39.47;30.70;;;;;;;12.00;100.00;123854.16;5069658;28;20029;-58
2023/05/07 05:08:35;;;;;;;43.05;34.45;;;;;;;12.03;100.00;125966.69;5068735;28;20403;-58
2023/05/07 05:11:02;;;;;;;42.20;34.38;;;;;;;11.94;100.00;130515.16;5068260;28;20041;-57
2023/05/07 05:13:27;;;;;;;37.78;32.45;;;;;;;12.09;100.00;132656.25;5069510;28;20058;-58
2023/05/07 05:15:52;;;;;;;41.70;30.98;;;;;;;12.14;100.00;134777.38;5064324;28;20062;-57
2023/05/07 05:18:18;;;;;;;32.85;29.40;;;;;;;12.18;100.00;136194.44;5050188;28;20511;-58
2023/05/07 05:20:43;;;;;;;34.17;30.38;;;;;;;12.24;100.00;137616.75;5048089;28;20427;-58
2023/05/07 05:23:09;;;;;;;39.00;31.10;;;;;;;12.20;100.00;141131.75;5063041;28;20041;-58
2023/05/07 05:25:34;;;;;;;36.03;31.10;;;;;;;12.24;100.00;144668.34;5067239;28;20059;-57
2023/05/07 05:27:59;;;;;;;35.15;31.33;;;;;;;12.29;100.00;147151.31;5069938;28;20023;-57
2023/05/07 05:30:25;;;;;;;41.88;31.15;;;;;;;12.26;100.00;149969.84;5067350;28;20438;-58
2023/05/07 05:32:50;;;;;;;41.03;31.08;;;;;;;12.20;100.00;154551.84;5069427;28;20025;-57
2023/05/07 05:35:16;;;;;;;36.33;32.33;;;;;;;12.28;100.00;158851.25;5068709;28;20036;-57
2023/05/07 05:37:41;;;;;;;39.40;31.70;;;;;;;12.31;100.00;161239.09;5068650;28;20028;-57
2023/05/07 05:40:07;;;;;;;36.58;31.23;;;;;;;12.30;100.00;163781.13;5066899;28;20445;-58
2023/05/07 05:42:32;;;;;;;38.05;30.88;;;;;;;12.34;100.00;163791.91;5069844;28;20020;-58
2023/05/07 05:44:57;;;;;;;33.13;29.50;;;;;;;12.28;100.00;163775.72;5071823;28;20036;-58
2023/05/07 05:47:23;;;;;;;34.08;29.13;;;;;;;12.35;100.00;163793.28;5072535;28;20074;-58
2023/05/07 05:49:48;;;;;;;38.22;29.85;;;;;;;12.42;100.00;163810.84;5065779;28;20040;-57
2023/05/07 05:52:14;;;;;;;34.78;27.70;;;;;;;12.46;100.00;163821.66;5053267;28;20025;-57
2023/05/07 05:54:39;;;;;;;36.53;29.52;;;;;;;12.45;100.00;163820.28;5059368;28;20178;-57
2023/05/07 05:57:05;;;;;;;32.60;27.25;;;;;;;12.46;100.00;163821.66;5073436;28;20048;-57
2023/05/07 05:59:30;;;;;;;32.88;28.27;;;;;;;12.52;100.00;163837.88;5070054;28;20535;-57
2023/05/07 06:01:55;;;;;;;33.60;26.70;;;;;;;12.58;100.00;163854.09;5071978;28;20031;-57
2023/05/07 06:04:21;;;;;;;33.47;28.10;;;;;;;12.68;100.00;163881.13;5071739;28;20108;-57
2023/05/07 06:06:46;;;;;;;35.35;27.10;;;;;;;12.73;100.00;163891.94;5071613;28;20422;-57
2023/05/07 06:09:11;;;;;;;36.92;29.27;;;;;;;12.72;100.00;163889.22;5070350;28;20040;-56
2023/05/07 06:11:37;;;;;;;29.92;26.77;;;;;;;12.80;100.00;163912.22;5072547;28;20024;-57
2023/05/07 06:14:02;;;;;;;31.73;25.45;;;;;;;12.83;100.00;163918.97;5071391;28;20036;-57
2023/05/07 06:16:28;;;;;;;31.90;26.90;;;;;;;12.91;100.00;163939.22;5071968;28;20028;-57
2023/05/07 06:18:53;;;;;;;29.73;26.27;;;;;;;12.79;100.00;163908.13;5071657;28;20499;-57
2023/05/07 06:21:19;;;;;;;32.17;26.05;;;;;;;12.81;100.00;163913.56;5071614;28;20475;-57
2023/05/07 06:23:44;;;;;;;30.50;25.75;;;;;;;12.91;100.00;163940.63;5070644;28;20094;-57
2023/05/07 06:26:09;;;;;;;31.45;26.92;;;;;;;12.96;100.00;163954.13;5072903;28;20402;-57
2023/05/07 06:28:38;;;;;;;30.60;26.27;;;;;;;13.01;100.00;163967.63;5070793;28;20540;-56
2023/05/07 06:31:13;;;;;;;30.98;26.58;;;;;;;13.02;100.00;163970.31;5072345;28;20013;-57
2023/05/07 06:33:39;;;;;;;31.17;25.15;;;;;;;13.11;100.00;163993.28;5071237;28;20364;-57
2023/05/07 06:36:05;;;;;;;32.50;28.50;;;;;;;13.18;100.00;164010.88;5070626;28;20031;-57
2023/05/07 06:38:30;;;;;;;30.17;25.33;;;;;;;13.16;100.00;164005.47;5070484;28;20040;-57
2023/05/07 06:40:57;;;;;;;31.65;25.65;;;;;;;13.20;100.00;164016.31;5071041;28;20036;-56
2023/05/07 06:43:22;;;;;;;30.25;25.45;;;;;;;13.13;100.00;163997.38;5071831;28;20099;-57
2023/05/07 06:45:48;;;;;;;30.83;26.20;;;;;;;13.22;100.00;164021.69;5068600;28;20131;-57
2023/05/07 06:48:13;;;;;;;38.22;29.15;;;;;;;13.19;100.00;164013.59;5072587;28;20467;-57
2023/05/07 06:50:38;;;;;;;30.65;25.92;;;;;;;13.21;100.00;164019.03;5070350;28;20036;-57
2023/05/07 06:53:04;;;;;;;29.95;24.20;;;;;;;13.30;100.00;164043.31;5071465;28;20480;-57
2023/05/07 06:55:29;;;;;;;27.67;23.60;;;;;;;13.44;100.00;164078.56;5068926;28;20433;-57
2023/05/07 06:57:54;;;;;;;27.27;24.33;;;;;;;13.51;100.00;164097.50;5069965;28;20501;-57
2023/05/07 07:00:20;;;;;;;27.63;24.38;;;;;;;13.60;100.00;164121.78;5063170;28;20056;-57
2023/05/07 07:02:45;;;;;;;30.27;26.40;;;;;;;13.64;100.00;164132.63;5071201;28;20068;-57
2023/05/07 07:05:10;;;;;;;27.92;24.63;;;;;;;13.68;100.00;164140.72;5069664;28;20044;-57
2023/05/07 07:07:36;;;;;;;29.02;25.92;;;;;;;13.74;100.00;164158.31;5071095;28;20267;-57
2023/05/07 07:10:03;;;;;;;30.67;22.42;;;;;;;13.71;100.00;164148.84;5055785;28;20044;-57
2023/05/07 07:12:29;;;;;;;25.85;22.52;;;;;;;13.79;100.00;164171.84;5048911;28;20028;-57
2023/05/07 07:14:55;;;;;;;33.55;23.30;;;;;;;13.76;100.00;164163.75;5060096;28;20047;-57
2023/05/07 07:17:20;;;;;;;31.73;24.67;;;;;;;13.84;100.00;164182.69;5060294;28;20220;-57
2023/05/07 07:19:46;;;;;;;31.10;23.33;;;;;;;13.90;100.00;164198.91;5069153;28;20040;-57
2023/05/07 07:22:11;;;;;;;27.35;23.88;;;;;;;13.94;100.00;164211.09;5070288;28;20513;-57
2023/05/07 07:24:36;;;;;;;26.65;22.75;;;;;;;14.05;100.00;164238.09;5070195;28;20423;-57
2023/05/07 07:27:02;;;;;;;30.88;24.92;;;;;;;14.30;100.00;164304.38;5070819;28;20043;-57
2023/05/07 07:29:27;;;;;;;28.60;22.58;;;;;;;14.25;100.00;164292.25;5067929;28;20041;-57
2023/05/07 07:31:52;;;;;;;25.77;21.52;;;;;;;14.59;100.00;164380.19;5071220;28;20090;-57
2023/05/07 07:34:18;;;;;;;32.08;20.60;;;;;;;14.71;100.00;164411.31;5070086;28;20032;-57
2023/05/07 07:36:43;;;;;;;23.75;21.15;;;;;;;14.94;100.00;164470.88;5069561;28;20454;-57
2023/05/07 07:39:09;;;;;;;24.75;21.67;;;;;;;15.08;100.00;164508.75;5069018;28;20055;-57
2023/05/07 07:41:34;;;;;;;30.52;20.90;;;;;;;15.17;100.00;164533.13;5071009;28;20025;-57
2023/05/07 07:43:59;;;;;;;28.55;22.10;;;;;;;15.21;100.00;164544.00;5068906;28;20047;-57
2023/05/07 07:46:26;;;;;;;27.98;23.05;;;;;;;15.31;100.00;164568.31;5070529;28;20479;-58
2023/05/07 07:48:51;;;;;;;29.63;22.70;;;;;;;15.28;100.00;164560.22;5050248;28;20016;-57
2023/05/07 07:51:17;;;;;;;21.42;19.10;;;;;;;15.38;100.00;164587.25;5066539;28;20066;-57
2023/05/07 07:53:43;;;;;;;25.83;19.63;;;;;;;15.38;100.00;164587.25;5069939;28;20081;-57
2023/05/07 07:56:08;;;;;;;23.70;19.77;;;;;;;15.49;100.00;164617.06;5071428;28;20104;-58
2023/05/07 07:58:35;;;;;;;21.95;19.63;;;;;;;15.58;100.00;164640.06;5069454;28;20028;-58
2023/05/07 08:01:00;;;;;;;24.58;19.92;;;;;;;15.62;100.00;164649.53;5068818;28;20080;-57
2023/05/07 08:03:26;;;;;;;23.70;21.20;;;;;;;15.51;100.00;164622.50;5061905;28;20032;-57
2023/05/07 08:05:51;;;;;;;22.70;20.10;;;;;;;15.55;100.00;164631.97;5067960;28;20049;-58
2023/05/07 08:08:17;;;;;;;25.95;23.08;;;;;;;15.77;100.00;164690.16;5065426;28;20347;-58
2023/05/07 08:10:42;;;;;;;25.50;22.92;;;;;;;15.79;100.00;164695.59;5066678;28;20037;-57
2023/05/07 08:13:07;;;;;;;23.67;20.40;;;;;;;15.82;100.00;164703.69;5068167;28;20081;-57
2023/05/07 08:15:33;;;;;;;22.42;17.77;;;;;;;15.98;100.00;164744.38;5067957;28;20044;-58
2023/05/07 08:17:59;;;;;;;22.08;19.90;;;;;;;15.97;100.00;164743.03;5070319;28;20033;-57
2023/05/07 08:20:25;;;;;;;28.15;20.17;;;;;;;16.06;100.00;164766.03;5068692;28;20047;-57
2023/05/07 08:22:51;;;;;;;23.88;21.35;;;;;;;16.15;100.00;164790.44;5069336;28;20028;-58
2023/05/07 08:25:16;;;;;;;25.00;20.48;;;;;;;16.34;100.00;164839.22;5067953;28;20081;-58
2023/05/07 08:27:42;;;;;;;22.73;20.33;;;;;;;16.35;100.00;164841.88;5070027;28;20081;-57
2023/05/07 08:30:08;;;;;;;21.55;19.10;;;;;;;16.33;100.00;164836.50;5067205;28;20044;-58
2023/05/07 08:32:33;;;;;;;24.80;19.90;;;;;;;16.54;100.00;164890.66;5068766;28;20012;-58
2023/05/07 08:34:58;;;;;;;21.80;19.48;;;;;;;16.59;100.00;164905.59;5056817;28;20036;-58
2023/05/07 08:37:24;;;;;;;26.40;21.15;;;;;;;16.75;100.00;164947.56;5069380;28;20020;-58
2023/05/07 08:39:49;;;;;;;20.40;18.30;;;;;;;16.89;100.00;164982.78;5067392;28;20503;-58
2023/05/07 08:42:16;;;;;;;19.60;17.33;;;;;;;16.85;100.00;164971.97;5070073;28;20027;-58
2023/05/07 08:44:46;;;;;;;21.35;19.10;;;;;;;17.03;100.00;165020.75;5064857;28;20064;-58
2023/05/07 08:47:12;;;;;;;19.85;17.80;;;;;;;17.29;100.00;165088.53;5050645;28;20032;-58
2023/05/07 08:49:37;;;;;;;22.13;18.30;;;;;;;17.49;100.00;165140.03;5065751;28;20051;-58
2023/05/07 08:52:03;;;;;;;19.42;17.25;;;;;;;17.59;100.00;165167.16;5070155;28;20016;-58
2023/05/07 08:54:29;;;;;;;20.10;15.88;;;;;;;17.51;100.00;165145.44;5068758;28;20067;-58
2023/05/07 08:56:54;;;;;;;20.13;15.65;;;;;;;17.56;100.00;165159.00;5069993;28;20021;-57
2023/05/07 08:59:19;;;;;;;21.70;18.45;;;;;;;18.16;100.00;165317.69;5068243;28;20040;-56
2023/05/07 09:01:45;;;;;;;18.10;16.17;;;;;;;18.37;100.00;165371.91;5064874;28;20037;-57
2023/05/07 09:04:12;;;;;;;19.05;17.25;;;;;;;18.55;100.00;165419.34;5066683;28;20089;-58
2023/05/07 09:06:41;;;;;;;17.73;16.08;;;;;;;18.52;100.00;165411.19;5070247;28;20020;-58
2023/05/07 09:09:06;;;;;;;17.83;15.93;;;;;;;18.27;100.00;165346.16;5066085;28;20581;-58
2023/05/07 09:11:32;;;;;;;21.85;17.02;;;;;;;18.59;100.00;165430.19;5069292;28;20024;-58
2023/05/07 09:13:59;;;;;;;18.83;16.95;;;;;;;18.35;100.00;165367.84;5068793;28;20029;-58
2023/05/07 09:16:25;;;;;;;17.92;16.02;;;;;;;18.48;100.00;165400.38;5070276;28;20029;-58
2023/05/07 09:18:52;;;;;;;15.00;13.45;;;;;;;18.59;100.00;165430.19;5072470;28;20097;-58
2023/05/07 09:21:18;;;;;;;15.88;14.10;;;;;;;18.67;100.00;165451.88;5074118;28;20499;-58
2023/05/07 09:23:44;;;;;;;16.20;14.50;;;;;;;18.46;100.00;165394.94;5072221;28;20039;-58
2023/05/07 09:26:11;;;;;;;19.23;17.27;;;;;;;18.55;100.00;165419.34;5073793;28;20028;-58
2023/05/07 09:28:41;;;;;;;17.50;15.47;;;;;;;18.71;100.00;165462.75;5072802;28;20020;-57
2023/05/07 09:31:07;;;;;;;16.98;15.18;;;;;;;18.91;100.00;165512.94;5073940;28;20426;-58
2023/05/07 09:33:33;;;;;;;17.55;14.75;;;;;;;19.03;100.00;165546.88;5073489;28;20028;-57
2023/05/07 09:35:58;;;;;;;17.20;15.48;;;;;;;18.91;100.00;165514.28;5072186;28;20043;-58
2023/05/07 09:38:23;;;;;;;16.38;14.68;;;;;;;18.93;100.00;165519.78;5073731;28;20025;-58
2023/05/07 09:41:05;;;;;;;19.88;17.65;;;;;;;18.85;100.00;165498.00;5072195;28;20055;-58
2023/05/07 09:43:35;;;;;;;18.80;15.60;;;;;;;18.78;100.00;165479.03;5073164;28;20455;-58
2023/05/07 09:46:07;;;;;;;17.85;16.00;;;;;;;18.75;100.00;165470.88;5068076;28;20072;-58
2023/05/07 09:48:39;;;;;;;18.02;16.10;;;;;;;18.86;100.00;165500.72;5073201;28;20040;-58
2023/05/07 09:51:20;;;;;;;16.88;15.13;;;;;;;18.99;100.00;165536.03;5059472;28;20043;-58
2023/05/07 09:53:46;;;;;;;16.60;15.00;;;;;;;19.21;100.00;165593.00;5059843;28;20071;-58
2023/05/07 09:56:14;;;;;;;15.65;14.10;;;;;;;19.17;100.00;165582.19;5053722;28;20029;-58
2023/05/07 09:58:41;;;;;;;21.65;16.35;;;;;;;18.95;100.00;165525.16;5050037;28;20033;-58
2023/05/07 10:01:07;;;;;;;22.93;19.83;;;;;;;19.18;100.00;165584.84;5033309;28;20128;-57
2023/05/07 10:03:34;;;;;;;18.75;16.20;;;;;;;19.19;100.00;165587.56;5045345;28;20605;-58
2023/05/07 10:06:00;;;;;;;18.15;16.27;;;;;;;19.28;100.00;165612.00;5071767;28;20392;-58
2023/05/07 10:08:26;;;;;;;17.13;15.38;;;;;;;19.29;100.00;165613.34;5073480;28;20381;-58
2023/05/07 10:10:51;;;;;;;18.40;16.48;;;;;;;19.10;100.00;165563.19;5071185;28;20033;-58
2023/05/07 10:13:19;;;;;;;16.77;15.13;;;;;;;19.07;100.00;165555.03;5073332;28;20379;-58
2023/05/07 10:15:44;;;;;;;19.50;16.08;;;;;;;19.10;100.00;165563.19;5071827;28;20102;-58
2023/05/07 10:18:12;;;;;;;18.27;15.15;;;;;;;18.96;100.00;165527.88;5072355;28;20025;-58
2023/05/07 10:20:38;;;;;;;19.38;16.90;;;;;;;19.05;100.00;165549.59;5070124;28;20067;-57
2023/05/07 10:23:05;;;;;;;18.48;16.52;;;;;;;18.90;100.00;165511.56;5071412;28;20025;-58
2023/05/07 10:25:32;;;;;;;18.70;16.67;;;;;;;19.08;100.00;165557.75;5070715;28;20048;-61
2023/05/07 10:28:02;;;;;;;17.80;13.55;;;;;;;19.56;100.00;165685.25;5072706;28;20048;-58
2023/05/07 10:30:50;;;;;;;17.75;15.43;;;;;;;20.24;100.00;165864.44;5071403;28;20036;-58
2023/05/07 10:33:19;;;;;;;16.65;14.90;;;;;;;20.96;100.00;166053.22;5072707;28;20032;-58
2023/05/07 10:35:47;;;;;;;23.80;17.05;;;;;;;21.40;100.00;166168.66;5071250;28;20079;-58
2023/05/07 10:38:12;;;;;;;17.88;16.13;;;;;;;21.70;100.00;166247.47;5071034;28;20032;-58
2023/05/07 10:40:38;;;;;;;15.75;14.27;;;;;;;21.97;100.00;166318.09;5064149;28;20059;-59
2023/05/07 10:43:05;;;;;;;16.20;14.43;;;;;;;22.02;100.00;166331.66;5072122;28;20032;-59
2023/05/07 10:45:31;;;;;;;16.73;15.05;;;;;;;21.69;100.00;166246.09;5070691;28;20115;-59
2023/05/07 10:48:12;;;;;;;19.15;14.85;;;;;;;21.63;100.00;166228.47;5072221;28;20547;-59
2023/05/07 10:50:40;;;;;;;18.25;16.20;;;;;;;21.80;100.00;166273.28;5070711;28;20048;-59
2023/05/07 10:53:17;;;;;;;16.88;14.80;;;;;;;21.82;100.00;166280.06;5072851;28;20028;-59
2023/05/07 10:55:48;;;;;;;16.15;14.43;;;;;;;21.82;100.00;166278.69;5070576;28;20041;-59
2023/05/07 10:58:29;;;;;;;15.25;13.70;;;;;;;21.73;100.00;166255.59;5072637;28;20426;-59
2023/05/07 11:00:59;;;;;;;14.90;13.40;;;;;;;21.64;100.00;166231.13;5070462;28;20061;-59